sensor_id;sensor_type;location;lat;lon;timestamp;pressure;altitude;pressure_sealevel;temperature;humidity
28630;BME280;15817;42.130;24.762;2023-07-13T00:02:21;99867.00;;;29.32;59.95
28630;BME280;15817;42.130;24.762;2023-07-13T00:05:30;99863.16;;;29.23;60.45
28630;BME280;15817;42.130;24.762;2023-07-13T00:08:02;99860.03;;;29.28;60.11
28630;BME280;15817;42.130;24.762;2023-07-13T00:11:04;99855.94;;;29.22;60.16
28630;BME280;15817;42.130;24.762;2023-07-13T00:17:10;99861.16;;;29.25;60.38
28630;BME280;15817;42.130;24.762;2023-07-13T00:20:01;99863.28;;;29.22;60.18
28630;BME280;15817;42.130;24.762;2023-07-13T00:22:46;99862.69;;;29.18;60.83
28630;BME280;15817;42.130;24.762;2023-07-13T00:25:25;99849.47;;;29.12;60.60
28630;BME280;15817;42.130;24.762;2023-07-13T00:28:24;99848.59;;;29.11;60.54
28630;BME280;15817;42.130;24.762;2023-07-13T00:30:56;99850.47;;;29.11;60.38
28630;BME280;15817;42.130;24.762;2023-07-13T00:33:32;99852.00;;;29.04;60.32
28630;BME280;15817;42.130;24.762;2023-07-13T00:36:20;99852.88;;;29.04;60.51
28630;BME280;15817;42.130;24.762;2023-07-13T00:39:13;99850.63;;;28.98;60.89
28630;BME280;15817;42.130;24.762;2023-07-13T00:42:14;99843.03;;;28.91;61.08
28630;BME280;15817;42.130;24.762;2023-07-13T00:48:02;99833.94;;;28.90;61.50
28630;BME280;15817;42.130;24.762;2023-07-13T00:50:45;99842.69;;;28.84;61.23
28630;BME280;15817;42.130;24.762;2023-07-13T00:53:45;99848.41;;;28.81;61.32
28630;BME280;15817;42.130;24.762;2023-07-13T00:56:37;99837.91;;;28.75;61.41
28630;BME280;15817;42.130;24.762;2023-07-13T00:59:13;99839.75;;;28.74;61.21
28630;BME280;15817;42.130;24.762;2023-07-13T01:02:12;99845.25;;;28.74;60.67
28630;BME280;15817;42.130;24.762;2023-07-13T01:05:24;99835.28;;;28.73;60.39
28630;BME280;15817;42.130;24.762;2023-07-13T01:08:10;99840.75;;;28.73;60.60
28630;BME280;15817;42.130;24.762;2023-07-13T01:11:15;99826.72;;;28.67;61.95
28630;BME280;15817;42.130;24.762;2023-07-13T01:14:00;99824.34;;;28.62;62.25
28630;BME280;15817;42.130;24.762;2023-07-13T01:16:42;99821.00;;;28.59;62.19
28630;BME280;15817;42.130;24.762;2023-07-13T01:19:40;99815.25;;;28.51;62.77
28630;BME280;15817;42.130;24.762;2023-07-13T01:22:34;99830.44;;;28.43;63.46
28630;BME280;15817;42.130;24.762;2023-07-13T01:25:13;99817.97;;;28.39;63.08
28630;BME280;15817;42.130;24.762;2023-07-13T01:28:02;99826.34;;;28.38;62.59
28630;BME280;15817;42.130;24.762;2023-07-13T01:31:01;99834.16;;;28.42;61.78
28630;BME280;15817;42.130;24.762;2023-07-13T01:33:43;99829.69;;;28.41;60.94
28630;BME280;15817;42.130;24.762;2023-07-13T01:36:42;99832.19;;;28.44;60.60
28630;BME280;15817;42.130;24.762;2023-07-13T01:39:20;99826.72;;;28.44;60.13
28630;BME280;15817;42.130;24.762;2023-07-13T01:42:25;99834.81;;;28.46;60.20
28630;BME280;15817;42.130;24.762;2023-07-13T01:45:15;99826.06;;;28.41;60.30
28630;BME280;15817;42.130;24.762;2023-07-13T01:48:04;99825.31;;;28.39;60.36
28630;BME280;15817;42.130;24.762;2023-07-13T01:50:35;99830.78;;;28.39;60.61
28630;BME280;15817;42.130;24.762;2023-07-13T01:53:13;99836.66;;;28.34;60.47
28630;BME280;15817;42.130;24.762;2023-07-13T01:59:46;99844.22;;;28.20;60.76
28630;BME280;15817;42.130;24.762;2023-07-13T02:02:46;99847.06;;;28.18;60.85
28630;BME280;15817;42.130;24.762;2023-07-13T02:06:00;99850.88;;;28.16;60.71
28630;BME280;15817;42.130;24.762;2023-07-13T02:08:52;99844.28;;;28.07;60.47
28630;BME280;15817;42.130;24.762;2023-07-13T02:11:28;99845.03;;;28.09;60.42
28630;BME280;15817;42.130;24.762;2023-07-13T02:14:06;99847.75;;;28.09;60.64
28630;BME280;15817;42.130;24.762;2023-07-13T02:16:53;99858.06;;;28.05;60.38
28630;BME280;15817;42.130;24.762;2023-07-13T02:19:45;99861.44;;;28.09;60.52
28630;BME280;15817;42.130;24.762;2023-07-13T02:22:34;99855.31;;;28.05;60.51
28630;BME280;15817;42.130;24.762;2023-07-13T02:25:28;99859.53;;;27.98;60.66
28630;BME280;15817;42.130;24.762;2023-07-13T02:28:36;99857.56;;;28.00;60.81
28630;BME280;15817;42.130;24.762;2023-07-13T02:31:24;99870.00;;;28.04;60.46
28630;BME280;15817;42.130;24.762;2023-07-13T02:34:30;99871.69;;;27.94;60.88
28630;BME280;15817;42.130;24.762;2023-07-13T02:37:05;99871.97;;;27.91;61.09
28630;BME280;15817;42.130;24.762;2023-07-13T02:39:40;99866.72;;;27.88;60.95
28630;BME280;15817;42.130;24.762;2023-07-13T02:42:25;99866.06;;;27.85;61.12
28630;BME280;15817;42.130;24.762;2023-07-13T02:45:08;99866.56;;;27.79;61.71
28630;BME280;15817;42.130;24.762;2023-07-13T02:47:51;99874.88;;;27.77;62.81
28630;BME280;15817;42.130;24.762;2023-07-13T02:57:12;99879.97;;;27.58;63.76
28630;BME280;15817;42.130;24.762;2023-07-13T03:00:17;99876.28;;;27.46;63.66
28630;BME280;15817;42.130;24.762;2023-07-13T03:03:07;99876.59;;;27.30;64.58
28630;BME280;15817;42.130;24.762;2023-07-13T03:05:44;99875.06;;;27.26;65.17
28630;BME280;15817;42.130;24.762;2023-07-13T03:08:19;99868.63;;;27.27;64.79
28630;BME280;15817;42.130;24.762;2023-07-13T03:11:05;99867.19;;;27.34;64.86
28630;BME280;15817;42.130;24.762;2023-07-13T03:13:39;99873.50;;;27.35;64.86
28630;BME280;15817;42.130;24.762;2023-07-13T03:16:10;99869.78;;;27.36;64.80
28630;BME280;15817;42.130;24.762;2023-07-13T03:18:40;99870.91;;;27.33;64.18
28630;BME280;15817;42.130;24.762;2023-07-13T03:21:10;99878.72;;;27.38;63.38
28630;BME280;15817;42.130;24.762;2023-07-13T03:23:36;99878.41;;;27.43;63.18
28630;BME280;15817;42.130;24.762;2023-07-13T03:26:18;99876.06;;;27.49;62.86
28630;BME280;15817;42.130;24.762;2023-07-13T03:28:47;99865.34;;;27.46;62.36
28630;BME280;15817;42.130;24.762;2023-07-13T03:31:42;99865.34;;;27.46;61.91
28630;BME280;15817;42.130;24.762;2023-07-13T03:34:07;99861.03;;;27.44;61.67
28630;BME280;15817;42.130;24.762;2023-07-13T03:36:37;99861.53;;;27.49;61.48
28630;BME280;15817;42.130;24.762;2023-07-13T03:39:09;99853.69;;;27.44;62.26
28630;BME280;15817;42.130;24.762;2023-07-13T03:41:58;99859.44;;;27.28;62.81
28630;BME280;15817;42.130;24.762;2023-07-13T03:44:29;99859.44;;;27.28;63.23
28630;BME280;15817;42.130;24.762;2023-07-13T03:46:58;99866.09;;;27.24;63.49
28630;BME280;15817;42.130;24.762;2023-07-13T03:49:43;99864.03;;;27.28;63.11
28630;BME280;15817;42.130;24.762;2023-07-13T03:55:18;99859.47;;;27.16;62.78
28630;BME280;15817;42.130;24.762;2023-07-13T04:01:39;99870.66;;;27.00;63.53
28630;BME280;15817;42.130;24.762;2023-07-13T04:04:37;99875.03;;;27.02;63.15
28630;BME280;15817;42.130;24.762;2023-07-13T04:10:06;99868.38;;;27.07;63.09
28630;BME280;15817;42.130;24.762;2023-07-13T04:12:37;99878.72;;;27.14;63.20
28630;BME280;15817;42.130;24.762;2023-07-13T04:15:38;99878.16;;;27.22;63.23
28630;BME280;15817;42.130;24.762;2023-07-13T04:18:14;99875.19;;;27.25;62.84
28630;BME280;15817;42.130;24.762;2023-07-13T04:24:51;99889.03;;;27.34;63.81
28630;BME280;15817;42.130;24.762;2023-07-13T04:27:22;99882.94;;;27.31;63.30
28630;BME280;15817;42.130;24.762;2023-07-13T04:30:06;99891.78;;;27.34;63.02
28630;BME280;15817;42.130;24.762;2023-07-13T04:32:34;99897.09;;;27.36;64.58
28630;BME280;15817;42.130;24.762;2023-07-13T04:35:03;99883.91;;;27.30;65.90
28630;BME280;15817;42.130;24.762;2023-07-13T04:37:47;99893.41;;;27.24;66.20
28630;BME280;15817;42.130;24.762;2023-07-13T04:40:30;99896.28;;;27.23;66.37
28630;BME280;15817;42.130;24.762;2023-07-13T04:43:08;99892.44;;;27.25;65.14
28630;BME280;15817;42.130;24.762;2023-07-13T04:45:40;99891.38;;;27.52;65.74
28630;BME280;15817;42.130;24.762;2023-07-13T04:48:26;99896.81;;;27.64;63.47
28630;BME280;15817;42.130;24.762;2023-07-13T04:51:18;99897.03;;;27.61;63.54
28630;BME280;15817;42.130;24.762;2023-07-13T04:53:59;99904.69;;;27.69;63.42
28630;BME280;15817;42.130;24.762;2023-07-13T04:57:00;99901.19;;;27.67;63.47
28630;BME280;15817;42.130;24.762;2023-07-13T04:59:46;99904.25;;;27.62;63.04
28630;BME280;15817;42.130;24.762;2023-07-13T05:02:21;99900.00;;;27.58;62.87
28630;BME280;15817;42.130;24.762;2023-07-13T05:06:08;99896.16;;;27.61;62.78
28630;BME280;15817;42.130;24.762;2023-07-13T05:13:02;99908.44;;;27.55;62.61
28630;BME280;15817;42.130;24.762;2023-07-13T05:16:03;99901.31;;;27.53;62.93
28630;BME280;15817;42.130;24.762;2023-07-13T05:19:05;99903.94;;;27.54;62.84
28630;BME280;15817;42.130;24.762;2023-07-13T05:22:02;99897.69;;;27.52;61.76
28630;BME280;15817;42.130;24.762;2023-07-13T05:25:32;99908.19;;;27.58;61.63
28630;BME280;15817;42.130;24.762;2023-07-13T05:28:27;99908.44;;;27.55;64.60
28630;BME280;15817;42.130;24.762;2023-07-13T05:46:43;99915.56;;;27.45;63.32
28630;BME280;15817;42.130;24.762;2023-07-13T05:49:56;99907.22;;;27.47;63.04
28630;BME280;15817;42.130;24.762;2023-07-13T05:59:35;99902.41;;;27.50;63.53
28630;BME280;15817;42.130;24.762;2023-07-13T06:02:16;99900.44;;;27.52;64.00
28630;BME280;15817;42.130;24.762;2023-07-13T06:05:06;99905.59;;;27.57;63.17
28630;BME280;15817;42.130;24.762;2023-07-13T06:07:41;99899.25;;;27.56;63.03
28630;BME280;15817;42.130;24.762;2023-07-13T06:10:37;99910.47;;;27.64;62.95
28630;BME280;15817;42.130;24.762;2023-07-13T06:13:49;99906.88;;;27.64;62.33
28630;BME280;15817;42.130;24.762;2023-07-13T06:16:47;99915.59;;;27.69;63.02
28630;BME280;15817;42.130;24.762;2023-07-13T06:20:16;99909.00;;;27.71;62.87
28630;BME280;15817;42.130;24.762;2023-07-13T06:23:13;99896.09;;;27.73;62.73
28630;BME280;15817;42.130;24.762;2023-07-13T06:26:11;99902.22;;;27.77;62.30
28630;BME280;15817;42.130;24.762;2023-07-13T06:32:35;99906.97;;;27.86;60.65
28630;BME280;15817;42.130;24.762;2023-07-13T06:35:43;99901.16;;;27.91;59.78
28630;BME280;15817;42.130;24.762;2023-07-13T06:38:49;99897.66;;;27.89;59.81
28630;BME280;15817;42.130;24.762;2023-07-13T07:16:28;99900.09;;;28.51;57.39
28630;BME280;15817;42.130;24.762;2023-07-13T07:23:35;99896.03;;;28.67;57.41
28630;BME280;15817;42.130;24.762;2023-07-13T07:26:44;99895.66;;;28.72;57.30
28630;BME280;15817;42.130;24.762;2023-07-13T07:29:39;99879.97;;;28.74;57.44
28630;BME280;15817;42.130;24.762;2023-07-13T08:06:48;99868.16;;;29.72;53.17
28630;BME280;15817;42.130;24.762;2023-07-13T08:10:16;99863.94;;;30.00;52.52
28630;BME280;15817;42.130;24.762;2023-07-13T08:13:02;99864.41;;;30.26;51.05
28630;BME280;15817;42.130;24.762;2023-07-13T08:16:17;99851.78;;;30.55;50.66
28630;BME280;15817;42.130;24.762;2023-07-13T08:19:11;99855.50;;;30.85;50.46
28630;BME280;15817;42.130;24.762;2023-07-13T08:22:40;99849.00;;;31.16;49.30
28630;BME280;15817;42.130;24.762;2023-07-13T08:25:27;99859.31;;;31.43;48.51
28630;BME280;15817;42.130;24.762;2023-07-13T08:28:11;99852.88;;;31.63;47.17
28630;BME280;15817;42.130;24.762;2023-07-13T08:30:44;99847.94;;;31.86;46.05
28630;BME280;15817;42.130;24.762;2023-07-13T08:33:31;99844.47;;;32.13;46.47
28630;BME280;15817;42.130;24.762;2023-07-13T08:36:25;99853.88;;;32.40;45.09
28630;BME280;15817;42.130;24.762;2023-07-13T08:39:23;99851.72;;;32.70;44.14
28630;BME280;15817;42.130;24.762;2023-07-13T08:42:12;99852.09;;;32.95;43.16
28630;BME280;15817;42.130;24.762;2023-07-13T08:47:16;99842.66;;;33.25;42.51
28630;BME280;15817;42.130;24.762;2023-07-13T08:49:48;99837.91;;;33.44;41.81
28630;BME280;15817;42.130;24.762;2023-07-13T08:53:02;99826.50;;;33.57;41.40
28630;BME280;15817;42.130;24.762;2023-07-13T08:55:51;99828.81;;;33.79;41.64
28630;BME280;15817;42.130;24.762;2023-07-13T08:58:25;99826.03;;;33.97;40.88
28630;BME280;15817;42.130;24.762;2023-07-13T09:06:20;99828.53;;;34.78;40.47
28630;BME280;15817;42.130;24.762;2023-07-13T09:15:47;99819.47;;;35.44;39.11
28630;BME280;15817;42.130;24.762;2023-07-13T09:22:25;99810.41;;;35.76;37.30
28630;BME280;15817;42.130;24.762;2023-07-13T09:27:58;99800.34;;;36.15;37.43
28630;BME280;15817;42.130;24.762;2023-07-13T09:31:01;99798.97;;;36.27;37.18
28630;BME280;15817;42.130;24.762;2023-07-13T09:36:40;99784.34;;;36.66;38.01
28630;BME280;15817;42.130;24.762;2023-07-13T09:42:56;99770.88;;;37.02;36.17
28630;BME280;15817;42.130;24.762;2023-07-13T09:48:56;99764.28;;;37.34;34.28
28630;BME280;15817;42.130;24.762;2023-07-13T09:52:07;99762.44;;;37.49;33.86
28630;BME280;15817;42.130;24.762;2023-07-13T09:54:46;99749.22;;;37.51;33.42
28630;BME280;15817;42.130;24.762;2023-07-13T09:57:19;99757.69;;;37.58;33.73
28630;BME280;15817;42.130;24.762;2023-07-13T10:00:18;99750.31;;;37.73;33.38
28630;BME280;15817;42.130;24.762;2023-07-13T10:03:26;99749.97;;;37.91;33.00
28630;BME280;15817;42.130;24.762;2023-07-13T10:07:06;99726.38;;;38.10;32.43
28630;BME280;15817;42.130;24.762;2023-07-13T10:10:16;99734.91;;;38.23;33.13
28630;BME280;15817;42.130;24.762;2023-07-13T10:13:26;99725.03;;;38.20;33.76
28630;BME280;15817;42.130;24.762;2023-07-13T10:16:29;99705.97;;;38.32;33.97
28630;BME280;15817;42.130;24.762;2023-07-13T10:23:32;99722.22;;;38.58;32.00
28630;BME280;15817;42.130;24.762;2023-07-13T10:25:59;99727.00;;;38.64;31.61
28630;BME280;15817;42.130;24.762;2023-07-13T10:28:55;99727.47;;;38.67;31.40
28630;BME280;15817;42.130;24.762;2023-07-13T10:31:27;99723.63;;;38.68;30.82
28630;BME280;15817;42.130;24.762;2023-07-13T10:41:38;99695.69;;;39.06;29.96
28630;BME280;15817;42.130;24.762;2023-07-13T10:44:45;99696.59;;;39.13;29.86
28630;BME280;15817;42.130;24.762;2023-07-13T10:47:24;99701.41;;;39.19;27.77
28630;BME280;15817;42.130;24.762;2023-07-13T10:49:58;99703.00;;;39.28;27.33
28630;BME280;15817;42.130;24.762;2023-07-13T10:52:45;99697.47;;;39.35;27.00
28630;BME280;15817;42.130;24.762;2023-07-13T10:58:32;99697.53;;;39.56;26.25
28630;BME280;15817;42.130;24.762;2023-07-13T11:01:08;99694.75;;;39.56;26.45
28630;BME280;15817;42.130;24.762;2023-07-13T11:03:49;99683.84;;;39.61;25.86
28630;BME280;15817;42.130;24.762;2023-07-13T11:06:42;99685.38;;;39.64;25.74
28630;BME280;15817;42.130;24.762;2023-07-13T11:09:37;99680.00;;;39.62;25.65
28630;BME280;15817;42.130;24.762;2023-07-13T11:25:20;99664.97;;;39.57;25.24
28630;BME280;15817;42.130;24.762;2023-07-13T11:36:44;99652.25;;;39.75;24.70
28630;BME280;15817;42.130;24.762;2023-07-13T11:39:35;99651.06;;;39.85;25.41
28630;BME280;15817;42.130;24.762;2023-07-13T11:46:17;99651.84;;;40.06;24.61
28630;BME280;15817;42.130;24.762;2023-07-13T11:49:06;99652.06;;;40.05;24.82
28630;BME280;15817;42.130;24.762;2023-07-13T11:51:44;99651.84;;;40.06;24.78
28630;BME280;15817;42.130;24.762;2023-07-13T11:54:34;99651.00;;;40.06;24.34
28630;BME280;15817;42.130;24.762;2023-07-13T12:00:01;99630.81;;;39.97;23.96
28630;BME280;15817;42.130;24.762;2023-07-13T12:03:21;99640.06;;;40.04;24.21
28630;BME280;15817;42.130;24.762;2023-07-13T12:05:57;99626.13;;;40.04;24.10
28630;BME280;15817;42.130;24.762;2023-07-13T12:08:25;99621.97;;;39.94;25.06
28630;BME280;15817;42.130;24.762;2023-07-13T12:11:05;99612.81;;;40.00;24.45
28630;BME280;15817;42.130;24.762;2023-07-13T12:13:37;99617.53;;;39.99;24.86
28630;BME280;15817;42.130;24.762;2023-07-13T12:16:12;99610.91;;;40.07;23.77
28630;BME280;15817;42.130;24.762;2023-07-13T12:18:43;99610.97;;;40.13;24.46
28630;BME280;15817;42.130;24.762;2023-07-13T12:21:18;99599.38;;;40.16;26.32
28630;BME280;15817;42.130;24.762;2023-07-13T12:23:46;99596.59;;;40.16;27.52
28630;BME280;15817;42.130;24.762;2023-07-13T12:26:14;99585.03;;;40.13;27.45
28630;BME280;15817;42.130;24.762;2023-07-13T12:28:47;99587.16;;;40.11;28.03
28630;BME280;15817;42.130;24.762;2023-07-13T12:31:26;99592.47;;;40.06;27.81
28630;BME280;15817;42.130;24.762;2023-07-13T12:34:12;99586.69;;;40.01;27.57
28630;BME280;15817;42.130;24.762;2023-07-13T12:41:52;99574.03;;;40.05;26.73
28630;BME280;15817;42.130;24.762;2023-07-13T12:44:27;99574.69;;;40.00;26.71
28630;BME280;15817;42.130;24.762;2023-07-13T12:47:12;99570.16;;;39.99;26.54
28630;BME280;15817;42.130;24.762;2023-07-13T12:49:47;99566.72;;;39.97;26.50
28630;BME280;15817;42.130;24.762;2023-07-13T12:52:21;99569.69;;;39.96;26.57
28630;BME280;15817;42.130;24.762;2023-07-13T12:54:55;99564.13;;;39.96;26.13
28630;BME280;15817;42.130;24.762;2023-07-13T12:57:23;99554.09;;;40.01;26.87
28630;BME280;15817;42.130;24.762;2023-07-13T12:59:52;99554.97;;;40.02;26.06
28630;BME280;15817;42.130;24.762;2023-07-13T13:02:43;99555.13;;;39.94;26.00
28630;BME280;15817;42.130;24.762;2023-07-13T13:05:12;99554.25;;;39.93;26.39
28630;BME280;15817;42.130;24.762;2023-07-13T13:07:40;99550.38;;;39.88;25.80
28630;BME280;15817;42.130;24.762;2023-07-13T13:10:13;99557.47;;;39.90;25.70
28630;BME280;15817;42.130;24.762;2023-07-13T13:13:07;99539.25;;;39.88;25.83
28630;BME280;15817;42.130;24.762;2023-07-13T13:19:44;99542.22;;;39.86;26.08
28630;BME280;15817;42.130;24.762;2023-07-13T13:26:00;99535.72;;;39.79;26.00
28630;BME280;15817;42.130;24.762;2023-07-13T13:29:21;99533.88;;;39.86;25.64
28630;BME280;15817;42.130;24.762;2023-07-13T13:31:49;99524.59;;;39.79;26.24
28630;BME280;15817;42.130;24.762;2023-07-13T13:34:52;99510.00;;;39.77;26.05
28630;BME280;15817;42.130;24.762;2023-07-13T13:37:30;99509.09;;;39.70;25.01
28630;BME280;15817;42.130;24.762;2023-07-13T13:40:19;99509.53;;;39.67;26.08
28630;BME280;15817;42.130;24.762;2023-07-13T13:42:53;99500.25;;;39.60;26.46
28630;BME280;15817;42.130;24.762;2023-07-13T13:46:02;99505.41;;;39.63;26.71
28630;BME280;15817;42.130;24.762;2023-07-13T13:48:43;99499.84;;;39.63;26.72
28630;BME280;15817;42.130;24.762;2023-07-13T13:54:35;99498.50;;;39.52;26.56
28630;BME280;15817;42.130;24.762;2023-07-13T13:57:42;99499.56;;;39.51;26.55
28630;BME280;15817;42.130;24.762;2023-07-13T14:00:29;99508.50;;;39.46;26.69
28630;BME280;15817;42.130;24.762;2023-07-13T14:03:46;99504.91;;;39.46;27.02
28630;BME280;15817;42.130;24.762;2023-07-13T14:06:56;99504.34;;;39.36;26.05
28630;BME280;15817;42.130;24.762;2023-07-13T14:09:54;99495.97;;;39.29;26.40
28630;BME280;15817;42.130;24.762;2023-07-13T14:12:53;99491.44;;;39.28;26.61
28630;BME280;15817;42.130;24.762;2023-07-13T14:16:13;99498.94;;;39.28;26.77
28630;BME280;15817;42.130;24.762;2023-07-13T14:18:56;99498.72;;;39.23;26.70
28630;BME280;15817;42.130;24.762;2023-07-13T14:28:15;99485.47;;;39.03;27.31
28630;BME280;15817;42.130;24.762;2023-07-13T14:31:19;99480.19;;;38.87;26.87
28630;BME280;15817;42.130;24.762;2023-07-13T14:37:11;99468.78;;;38.82;27.55
28630;BME280;15817;42.130;24.762;2023-07-13T14:40:01;99476.28;;;38.82;27.72
28630;BME280;15817;42.130;24.762;2023-07-13T14:42:56;99482.22;;;38.79;27.83
28630;BME280;15817;42.130;24.762;2023-07-13T14:45:33;99469.81;;;38.74;27.56
28630;BME280;15817;42.130;24.762;2023-07-13T14:48:10;99466.09;;;38.67;27.57
28630;BME280;15817;42.130;24.762;2023-07-13T14:51:18;99475.22;;;38.61;27.52
28630;BME280;15817;42.130;24.762;2023-07-13T14:57:04;99464.63;;;38.50;28.05
28630;BME280;15817;42.130;24.762;2023-07-13T15:00:03;99467.13;;;38.45;27.64
28630;BME280;15817;42.130;24.762;2023-07-13T15:03:02;99455.94;;;38.38;27.59
28630;BME280;15817;42.130;24.762;2023-07-13T15:05:52;99450.53;;;38.30;28.03
28630;BME280;15817;42.130;24.762;2023-07-13T15:08:33;99455.59;;;38.27;27.95
28630;BME280;15817;42.130;24.762;2023-07-13T15:11:37;99455.31;;;38.22;28.27
28630;BME280;15817;42.130;24.762;2023-07-13T15:14:07;99447.59;;;38.17;28.17
28630;BME280;15817;42.130;24.762;2023-07-13T15:20:28;99456.06;;;37.94;28.56
28630;BME280;15817;42.130;24.762;2023-07-13T15:22:55;99456.44;;;37.91;29.10
28630;BME280;15817;42.130;24.762;2023-07-13T15:25:29;99451.56;;;37.93;28.83
28630;BME280;15817;42.130;24.762;2023-07-13T15:27:56;99454.53;;;37.92;28.55
28630;BME280;15817;42.130;24.762;2023-07-13T15:30:46;99454.72;;;37.90;28.66
28630;BME280;15817;42.130;24.762;2023-07-13T15:33:28;99454.53;;;37.92;28.30
28630;BME280;15817;42.130;24.762;2023-07-13T15:36:04;99454.03;;;37.88;28.47
28630;BME280;15817;42.130;24.762;2023-07-13T15:41:50;99458.47;;;37.83;28.67
28630;BME280;15817;42.130;24.762;2023-07-13T15:44:23;99460.38;;;37.82;27.60
28630;BME280;15817;42.130;24.762;2023-07-13T15:46:53;99459.53;;;37.82;27.90
28630;BME280;15817;42.130;24.762;2023-07-13T15:49:19;99459.22;;;37.77;28.61
28630;BME280;15817;42.130;24.762;2023-07-13T15:54:39;99453.78;;;37.68;29.37
28630;BME280;15817;42.130;24.762;2023-07-13T15:57:09;99453.31;;;37.65;28.27
28630;BME280;15817;42.130;24.762;2023-07-13T15:59:37;99459.25;;;37.62;28.46
28630;BME280;15817;42.130;24.762;2023-07-13T16:02:20;99463.56;;;37.64;28.54
28630;BME280;15817;42.130;24.762;2023-07-13T16:04:49;99460.47;;;37.59;28.87
28630;BME280;15817;42.130;24.762;2023-07-13T16:07:19;99455.00;;;37.51;28.47
28630;BME280;15817;42.130;24.762;2023-07-13T16:09:50;99460.09;;;37.48;29.22
28630;BME280;15817;42.130;24.762;2023-07-13T16:12:19;99461.16;;;37.47;29.14
28630;BME280;15817;42.130;24.762;2023-07-13T16:14:47;99458.25;;;37.40;28.87
28630;BME280;15817;42.130;24.762;2023-07-13T16:17:16;99463.63;;;37.42;30.54
28630;BME280;15817;42.130;24.762;2023-07-13T16:19:42;99461.44;;;37.37;29.36
28630;BME280;15817;42.130;24.762;2023-07-13T16:22:17;99465.06;;;37.38;30.05
28630;BME280;15817;42.130;24.762;2023-07-13T16:27:35;99455.31;;;37.27;32.05
28630;BME280;15817;42.130;24.762;2023-07-13T16:30:21;99457.28;;;37.18;31.33
28630;BME280;15817;42.130;24.762;2023-07-13T16:33:00;99455.81;;;37.08;32.17
28630;BME280;15817;42.130;24.762;2023-07-13T16:35:38;99455.72;;;37.01;32.96
28630;BME280;15817;42.130;24.762;2023-07-13T16:41:54;99458.78;;;36.91;34.16
28630;BME280;15817;42.130;24.762;2023-07-13T16:44:33;99461.22;;;36.86;33.38
28630;BME280;15817;42.130;24.762;2023-07-13T16:50:31;99466.00;;;36.78;35.16
28630;BME280;15817;42.130;24.762;2023-07-13T16:53:03;99460.31;;;36.71;33.64
28630;BME280;15817;42.130;24.762;2023-07-13T16:55:54;99461.91;;;36.66;34.63
28630;BME280;15817;42.130;24.762;2023-07-13T16:59:19;99465.22;;;36.61;34.45
28630;BME280;15817;42.130;24.762;2023-07-13T17:05:17;99470.31;;;36.57;34.89
28630;BME280;15817;42.130;24.762;2023-07-13T17:07:51;99465.66;;;36.50;35.86
28630;BME280;15817;42.130;24.762;2023-07-13T17:10:35;99470.53;;;36.48;35.31
28630;BME280;15817;42.130;24.762;2023-07-13T17:13:33;99465.91;;;36.40;35.62
28630;BME280;15817;42.130;24.762;2023-07-13T17:16:07;99478.22;;;36.38;36.20
28630;BME280;15817;42.130;24.762;2023-07-13T17:18:37;99463.41;;;36.31;36.94
28630;BME280;15817;42.130;24.762;2023-07-13T17:21:26;99475.53;;;36.30;36.50
28630;BME280;15817;42.130;24.762;2023-07-13T17:23:55;99482.28;;;36.27;36.84
28630;BME280;15817;42.130;24.762;2023-07-13T17:26:25;99463.25;;;36.24;37.53
28630;BME280;15817;42.130;24.762;2023-07-13T17:29:06;99460.34;;;36.17;37.42
28630;BME280;15817;42.130;24.762;2023-07-13T17:35:42;99459.72;;;36.07;37.72
28630;BME280;15817;42.130;24.762;2023-07-13T17:38:11;99455.38;;;36.05;37.77
28630;BME280;15817;42.130;24.762;2023-07-13T17:41:10;99448.88;;;35.98;37.81
28630;BME280;15817;42.130;24.762;2023-07-13T17:44:05;99449.22;;;35.95;38.15
28630;BME280;15817;42.130;24.762;2023-07-13T17:47:01;99450.44;;;35.92;37.81
28630;BME280;15817;42.130;24.762;2023-07-13T17:49:49;99453.56;;;35.89;38.04
28630;BME280;15817;42.130;24.762;2023-07-13T17:52:21;99446.88;;;35.83;38.08
28630;BME280;15817;42.130;24.762;2023-07-13T17:55:22;99448.66;;;35.76;38.05
28630;BME280;15817;42.130;24.762;2023-07-13T17:58:27;99440.16;;;35.70;38.19
28630;BME280;15817;42.130;24.762;2023-07-13T18:01:15;99448.16;;;35.65;38.75
28630;BME280;15817;42.130;24.762;2023-07-13T18:03:57;99461.28;;;35.63;38.67
28630;BME280;15817;42.130;24.762;2023-07-13T18:06:41;99458.38;;;35.56;38.75
28630;BME280;15817;42.130;24.762;2023-07-13T18:09:24;99468.56;;;35.55;38.35
28630;BME280;15817;42.130;24.762;2023-07-13T18:11:52;99468.94;;;35.52;38.92
28630;BME280;15817;42.130;24.762;2023-07-13T18:14:26;99466.88;;;35.46;39.40
28630;BME280;15817;42.130;24.762;2023-07-13T18:16:57;99472.75;;;35.43;39.75
28630;BME280;15817;42.130;24.762;2023-07-13T18:19:43;99473.31;;;35.39;39.67
28630;BME280;15817;42.130;24.762;2023-07-13T18:25:59;99473.00;;;35.26;40.21
28630;BME280;15817;42.130;24.762;2023-07-13T18:28:34;99473.13;;;35.24;40.39
28630;BME280;15817;42.130;24.762;2023-07-13T18:34:52;99476.09;;;35.14;41.10
28630;BME280;15817;42.130;24.762;2023-07-13T18:37:46;99485.09;;;35.08;41.06
28630;BME280;15817;42.130;24.762;2023-07-13T18:40:30;99486.97;;;35.08;41.37
28630;BME280;15817;42.130;24.762;2023-07-13T18:43:02;99490.63;;;35.00;41.26
28630;BME280;15817;42.130;24.762;2023-07-13T18:46:08;99497.38;;;34.98;41.21
28630;BME280;15817;42.130;24.762;2023-07-13T18:51:40;99498.25;;;34.90;41.01
28630;BME280;15817;42.130;24.762;2023-07-13T18:54:27;99509.81;;;34.85;40.85
28630;BME280;15817;42.130;24.762;2023-07-13T19:01:32;99522.22;;;34.73;39.50
28630;BME280;15817;42.130;24.762;2023-07-13T19:04:33;99525.34;;;34.70;39.12
28630;BME280;15817;42.130;24.762;2023-07-13T19:07:32;99524.81;;;34.67;38.70